sensor_id;sensor_type;location;lat;lon;timestamp;P1;durP1;ratioP1;P2;durP2;ratioP2
9294;SDS011;4686;44.496;11.324;2022-11-06T00:00:28;9.50;;;7.73;;
9294;SDS011;4686;44.496;11.324;2022-11-06T00:02:56;9.37;;;8.47;;
9294;SDS011;4686;44.496;11.324;2022-11-06T00:05:23;8.93;;;8.07;;
9294;SDS011;4686;44.496;11.324;2022-11-06T00:08:09;8.17;;;7.33;;
9294;SDS011;4686;44.496;11.324;2022-11-06T00:10:37;9.47;;;8.30;;
9294;SDS011;4686;44.496;11.324;2022-11-06T00:13:05;8.93;;;8.13;;
9294;SDS011;4686;44.496;11.324;2022-11-06T00:15:32;9.90;;;8.57;;
9294;SDS011;4686;44.496;11.324;2022-11-06T00:18:00;9.40;;;8.50;;
9294;SDS011;4686;44.496;11.324;2022-11-06T00:20:27;10.10;;;8.30;;
9294;SDS011;4686;44.496;11.324;2022-11-06T00:22:55;11.10;;;7.47;;
9294;SDS011;4686;44.496;11.324;2022-11-06T00:25:24;9.40;;;8.60;;
9294;SDS011;4686;44.496;11.324;2022-11-06T00:27:52;10.23;;;7.87;;
9294;SDS011;4686;44.496;11.324;2022-11-06T00:30:19;8.43;;;7.60;;
9294;SDS011;4686;44.496;11.324;2022-11-06T00:32:46;10.40;;;9.00;;
9294;SDS011;4686;44.496;11.324;2022-11-06T00:35:14;8.87;;;8.07;;
9294;SDS011;4686;44.496;11.324;2022-11-06T00:37:42;9.07;;;8.27;;
9294;SDS011;4686;44.496;11.324;2022-11-06T00:40:10;10.43;;;8.57;;
9294;SDS011;4686;44.496;11.324;2022-11-06T00:42:39;9.83;;;8.10;;
9294;SDS011;4686;44.496;11.324;2022-11-06T00:45:06;12.13;;;9.13;;
9294;SDS011;4686;44.496;11.324;2022-11-06T00:47:34;9.63;;;8.63;;
9294;SDS011;4686;44.496;11.324;2022-11-06T00:50:02;10.57;;;8.20;;
9294;SDS011;4686;44.496;11.324;2022-11-06T00:52:29;10.40;;;8.70;;
9294;SDS011;4686;44.496;11.324;2022-11-06T00:54:56;11.13;;;8.90;;
9294;SDS011;4686;44.496;11.324;2022-11-06T00:57:24;10.90;;;8.67;;
9294;SDS011;4686;44.496;11.324;2022-11-06T00:59:53;9.10;;;8.10;;
9294;SDS011;4686;44.496;11.324;2022-11-06T01:02:20;9.40;;;8.30;;
9294;SDS011;4686;44.496;11.324;2022-11-06T01:04:48;9.03;;;8.13;;
9294;SDS011;4686;44.496;11.324;2022-11-06T01:07:15;8.80;;;7.93;;
9294;SDS011;4686;44.496;11.324;2022-11-06T01:09:42;9.13;;;8.20;;
9294;SDS011;4686;44.496;11.324;2022-11-06T01:12:10;9.43;;;8.40;;
9294;SDS011;4686;44.496;11.324;2022-11-06T01:14:37;8.73;;;7.83;;
9294;SDS011;4686;44.496;11.324;2022-11-06T01:17:06;11.73;;;9.03;;
9294;SDS011;4686;44.496;11.324;2022-11-06T01:19:33;9.47;;;8.10;;
9294;SDS011;4686;44.496;11.324;2022-11-06T01:22:01;8.63;;;7.83;;
9294;SDS011;4686;44.496;11.324;2022-11-06T01:24:28;9.20;;;8.40;;
9294;SDS011;4686;44.496;11.324;2022-11-06T01:26:55;8.47;;;7.67;;
9294;SDS011;4686;44.496;11.324;2022-11-06T01:29:23;9.30;;;8.40;;
9294;SDS011;4686;44.496;11.324;2022-11-06T01:31:50;9.20;;;7.90;;
9294;SDS011;4686;44.496;11.324;2022-11-06T01:34:18;9.20;;;8.30;;
9294;SDS011;4686;44.496;11.324;2022-11-06T01:36:46;8.80;;;7.90;;
9294;SDS011;4686;44.496;11.324;2022-11-06T01:39:13;10.17;;;8.77;;
9294;SDS011;4686;44.496;11.324;2022-11-06T01:41:42;8.40;;;7.70;;
9294;SDS011;4686;44.496;11.324;2022-11-06T01:46:57;8.97;;;8.17;;
9294;SDS011;4686;44.496;11.324;2022-11-06T01:49:26;9.10;;;8.20;;
9294;SDS011;4686;44.496;11.324;2022-11-06T01:51:56;10.20;;;8.60;;
9294;SDS011;4686;44.496;11.324;2022-11-06T01:54:25;8.80;;;7.90;;
9294;SDS011;4686;44.496;11.324;2022-11-06T01:56:54;9.53;;;8.30;;
9294;SDS011;4686;44.496;11.324;2022-11-06T01:59:23;9.57;;;8.67;;
9294;SDS011;4686;44.496;11.324;2022-11-06T02:01:54;8.77;;;7.90;;
9294;SDS011;4686;44.496;11.324;2022-11-06T02:04:23;9.07;;;8.23;;
9294;SDS011;4686;44.496;11.324;2022-11-06T02:06:52;8.50;;;7.80;;
9294;SDS011;4686;44.496;11.324;2022-11-06T02:09:20;8.53;;;7.73;;
9294;SDS011;4686;44.496;11.324;2022-11-06T02:11:49;8.73;;;7.83;;
9294;SDS011;4686;44.496;11.324;2022-11-06T02:14:18;8.70;;;7.80;;
9294;SDS011;4686;44.496;11.324;2022-11-06T02:16:48;9.57;;;8.57;;
9294;SDS011;4686;44.496;11.324;2022-11-06T02:19:23;9.87;;;8.87;;
9294;SDS011;4686;44.496;11.324;2022-11-06T02:22:03;8.40;;;7.60;;
9294;SDS011;4686;44.496;11.324;2022-11-06T02:24:35;8.27;;;7.53;;
9294;SDS011;4686;44.496;11.324;2022-11-06T02:27:08;9.37;;;8.00;;
9294;SDS011;4686;44.496;11.324;2022-11-06T02:29:37;8.13;;;7.43;;
9294;SDS011;4686;44.496;11.324;2022-11-06T02:32:09;9.40;;;8.57;;
9294;SDS011;4686;44.496;11.324;2022-11-06T02:34:37;8.57;;;7.77;;
9294;SDS011;4686;44.496;11.324;2022-11-06T02:37:06;11.87;;;8.80;;
9294;SDS011;4686;44.496;11.324;2022-11-06T02:39:35;10.90;;;8.97;;
9294;SDS011;4686;44.496;11.324;2022-11-06T02:42:03;9.30;;;8.40;;
9294;SDS011;4686;44.496;11.324;2022-11-06T02:44:35;9.67;;;8.40;;
9294;SDS011;4686;44.496;11.324;2022-11-06T02:47:04;9.93;;;8.60;;
9294;SDS011;4686;44.496;11.324;2022-11-06T02:49:33;9.43;;;8.50;;
9294;SDS011;4686;44.496;11.324;2022-11-06T02:52:04;10.70;;;9.60;;
9294;SDS011;4686;44.496;11.324;2022-11-06T02:54:33;8.53;;;7.67;;
9294;SDS011;4686;44.496;11.324;2022-11-06T02:57:02;9.83;;;8.83;;
9294;SDS011;4686;44.496;11.324;2022-11-06T02:59:34;8.90;;;8.00;;
9294;SDS011;4686;44.496;11.324;2022-11-06T03:02:05;9.53;;;8.23;;
9294;SDS011;4686;44.496;11.324;2022-11-06T03:04:34;9.73;;;8.53;;
9294;SDS011;4686;44.496;11.324;2022-11-06T03:07:05;13.43;;;9.33;;
9294;SDS011;4686;44.496;11.324;2022-11-06T03:09:34;8.97;;;8.00;;
9294;SDS011;4686;44.496;11.324;2022-11-06T03:12:03;9.70;;;8.67;;
9294;SDS011;4686;44.496;11.324;2022-11-06T03:14:38;8.77;;;7.97;;
9294;SDS011;4686;44.496;11.324;2022-11-06T03:17:09;9.23;;;8.17;;
9294;SDS011;4686;44.496;11.324;2022-11-06T03:19:39;10.07;;;8.47;;
9294;SDS011;4686;44.496;11.324;2022-11-06T03:22:08;9.03;;;8.23;;
9294;SDS011;4686;44.496;11.324;2022-11-06T03:24:39;9.43;;;8.23;;
9294;SDS011;4686;44.496;11.324;2022-11-06T03:27:14;9.77;;;8.77;;
9294;SDS011;4686;44.496;11.324;2022-11-06T03:29:44;10.33;;;8.23;;
9294;SDS011;4686;44.496;11.324;2022-11-06T03:32:14;10.93;;;8.23;;
9294;SDS011;4686;44.496;11.324;2022-11-06T03:34:44;9.30;;;8.40;;
9294;SDS011;4686;44.496;11.324;2022-11-06T03:37:15;11.03;;;8.40;;
9294;SDS011;4686;44.496;11.324;2022-11-06T03:39:45;9.20;;;8.13;;
9294;SDS011;4686;44.496;11.324;2022-11-06T03:42:14;8.43;;;7.63;;
9294;SDS011;4686;44.496;11.324;2022-11-06T03:44:44;9.37;;;8.40;;
9294;SDS011;4686;44.496;11.324;2022-11-06T03:47:14;9.97;;;8.93;;
9294;SDS011;4686;44.496;11.324;2022-11-06T03:49:44;9.93;;;8.03;;
9294;SDS011;4686;44.496;11.324;2022-11-06T03:52:14;10.63;;;9.53;;
9294;SDS011;4686;44.496;11.324;2022-11-06T03:54:43;10.47;;;8.90;;
9294;SDS011;4686;44.496;11.324;2022-11-06T03:57:13;9.20;;;8.30;;
9294;SDS011;4686;44.496;11.324;2022-11-06T03:59:42;9.23;;;8.37;;
9294;SDS011;4686;44.496;11.324;2022-11-06T04:02:12;9.37;;;8.47;;
9294;SDS011;4686;44.496;11.324;2022-11-06T04:04:40;11.10;;;8.57;;
9294;SDS011;4686;44.496;11.324;2022-11-06T04:07:10;9.37;;;8.50;;
9294;SDS011;4686;44.496;11.324;2022-11-06T04:09:40;9.17;;;8.27;;
9294;SDS011;4686;44.496;11.324;2022-11-06T04:12:26;9.17;;;8.17;;
9294;SDS011;4686;44.496;11.324;2022-11-06T04:15:23;9.30;;;8.40;;
9294;SDS011;4686;44.496;11.324;2022-11-06T04:17:52;10.37;;;9.30;;
9294;SDS011;4686;44.496;11.324;2022-11-06T04:20:20;8.90;;;8.00;;
9294;SDS011;4686;44.496;11.324;2022-11-06T04:23:07;9.30;;;8.40;;
9294;SDS011;4686;44.496;11.324;2022-11-06T04:25:43;9.40;;;8.50;;
9294;SDS011;4686;44.496;11.324;2022-11-06T04:28:31;8.73;;;7.93;;
9294;SDS011;4686;44.496;11.324;2022-11-06T04:31:02;9.37;;;8.47;;
9294;SDS011;4686;44.496;11.324;2022-11-06T04:33:36;8.97;;;8.03;;
9294;SDS011;4686;44.496;11.324;2022-11-06T04:36:09;8.63;;;7.90;;
9294;SDS011;4686;44.496;11.324;2022-11-06T04:38:39;10.40;;;7.70;;
9294;SDS011;4686;44.496;11.324;2022-11-06T04:41:11;8.70;;;7.90;;
9294;SDS011;4686;44.496;11.324;2022-11-06T04:43:41;10.00;;;9.00;;
9294;SDS011;4686;44.496;11.324;2022-11-06T04:46:10;9.23;;;8.23;;
9294;SDS011;4686;44.496;11.324;2022-11-06T04:48:39;9.87;;;8.87;;
9294;SDS011;4686;44.496;11.324;2022-11-06T04:51:07;9.67;;;8.27;;
9294;SDS011;4686;44.496;11.324;2022-11-06T04:53:36;9.60;;;8.30;;
9294;SDS011;4686;44.496;11.324;2022-11-06T04:56:05;9.43;;;8.33;;
9294;SDS011;4686;44.496;11.324;2022-11-06T04:58:33;10.00;;;9.00;;
9294;SDS011;4686;44.496;11.324;2022-11-06T05:01:00;11.67;;;9.40;;
9294;SDS011;4686;44.496;11.324;2022-11-06T05:03:27;12.03;;;8.90;;
9294;SDS011;4686;44.496;11.324;2022-11-06T05:05:56;8.80;;;7.90;;
9294;SDS011;4686;44.496;11.324;2022-11-06T05:08:23;9.43;;;8.50;;
9294;SDS011;4686;44.496;11.324;2022-11-06T05:10:51;10.50;;;8.50;;
9294;SDS011;4686;44.496;11.324;2022-11-06T05:13:19;10.80;;;8.20;;
9294;SDS011;4686;44.496;11.324;2022-11-06T05:15:47;10.63;;;9.53;;
9294;SDS011;4686;44.496;11.324;2022-11-06T05:18:14;10.20;;;8.67;;
9294;SDS011;4686;44.496;11.324;2022-11-06T05:20:42;9.63;;;8.70;;
9294;SDS011;4686;44.496;11.324;2022-11-06T05:23:12;11.30;;;8.40;;
9294;SDS011;4686;44.496;11.324;2022-11-06T05:25:39;9.53;;;8.57;;
9294;SDS011;4686;44.496;11.324;2022-11-06T05:28:07;9.77;;;8.87;;
9294;SDS011;4686;44.496;11.324;2022-11-06T05:30:46;9.87;;;8.97;;
9294;SDS011;4686;44.496;11.324;2022-11-06T05:33:13;11.57;;;8.47;;
9294;SDS011;4686;44.496;11.324;2022-11-06T05:35:41;11.43;;;10.27;;
9294;SDS011;4686;44.496;11.324;2022-11-06T05:38:08;10.27;;;9.27;;
9294;SDS011;4686;44.496;11.324;2022-11-06T05:40:37;11.53;;;10.43;;
9294;SDS011;4686;44.496;11.324;2022-11-06T05:43:05;10.60;;;9.10;;
9294;SDS011;4686;44.496;11.324;2022-11-06T05:45:32;9.90;;;8.47;;
9294;SDS011;4686;44.496;11.324;2022-11-06T05:48:00;10.13;;;9.23;;
9294;SDS011;4686;44.496;11.324;2022-11-06T05:50:27;9.50;;;8.60;;
9294;SDS011;4686;44.496;11.324;2022-11-06T05:52:55;9.33;;;8.40;;
9294;SDS011;4686;44.496;11.324;2022-11-06T05:55:22;40.00;;;9.63;;
9294;SDS011;4686;44.496;11.324;2022-11-06T05:57:51;8.73;;;7.73;;
9294;SDS011;4686;44.496;11.324;2022-11-06T06:00:18;10.60;;;8.23;;
9294;SDS011;4686;44.496;11.324;2022-11-06T06:02:46;9.13;;;8.30;;
9294;SDS011;4686;44.496;11.324;2022-11-06T06:05:13;9.50;;;7.90;;
9294;SDS011;4686;44.496;11.324;2022-11-06T06:07:40;9.00;;;8.10;;
9294;SDS011;4686;44.496;11.324;2022-11-06T06:10:08;9.57;;;8.43;;
9294;SDS011;4686;44.496;11.324;2022-11-06T06:12:35;10.43;;;8.67;;
9294;SDS011;4686;44.496;11.324;2022-11-06T06:15:05;9.33;;;8.43;;
9294;SDS011;4686;44.496;11.324;2022-11-06T06:17:33;9.23;;;8.23;;
9294;SDS011;4686;44.496;11.324;2022-11-06T06:20:00;8.90;;;8.10;;
9294;SDS011;4686;44.496;11.324;2022-11-06T06:22:28;9.97;;;8.47;;
9294;SDS011;4686;44.496;11.324;2022-11-06T06:24:55;9.07;;;8.27;;
9294;SDS011;4686;44.496;11.324;2022-11-06T06:27:23;8.87;;;8.10;;
9294;SDS011;4686;44.496;11.324;2022-11-06T06:29:51;7.97;;;7.27;;
9294;SDS011;4686;44.496;11.324;2022-11-06T06:32:20;9.23;;;8.33;;
9294;SDS011;4686;44.496;11.324;2022-11-06T06:34:47;8.90;;;8.10;;
9294;SDS011;4686;44.496;11.324;2022-11-06T06:37:14;9.73;;;8.87;;
9294;SDS011;4686;44.496;11.324;2022-11-06T06:39:42;8.00;;;7.30;;
9294;SDS011;4686;44.496;11.324;2022-11-06T06:42:09;8.90;;;8.10;;
9294;SDS011;4686;44.496;11.324;2022-11-06T06:44:36;9.23;;;8.10;;
9294;SDS011;4686;44.496;11.324;2022-11-06T06:47:04;8.07;;;7.37;;
9294;SDS011;4686;44.496;11.324;2022-11-06T06:49:32;9.90;;;8.67;;
9294;SDS011;4686;44.496;11.324;2022-11-06T06:52:00;9.57;;;8.50;;
9294;SDS011;4686;44.496;11.324;2022-11-06T06:54:28;9.83;;;8.83;;
9294;SDS011;4686;44.496;11.324;2022-11-06T06:56:55;10.60;;;8.47;;
9294;SDS011;4686;44.496;11.324;2022-11-06T06:59:24;9.80;;;8.90;;
9294;SDS011;4686;44.496;11.324;2022-11-06T07:01:51;9.17;;;8.23;;
9294;SDS011;4686;44.496;11.324;2022-11-06T07:04:19;9.13;;;8.17;;
9294;SDS011;4686;44.496;11.324;2022-11-06T07:06:48;8.90;;;8.10;;
9294;SDS011;4686;44.496;11.324;2022-11-06T07:09:15;10.30;;;8.50;;
9294;SDS011;4686;44.496;11.324;2022-11-06T07:11:42;9.43;;;8.17;;
9294;SDS011;4686;44.496;11.324;2022-11-06T07:14:10;8.70;;;7.87;;
9294;SDS011;4686;44.496;11.324;2022-11-06T07:16:37;8.57;;;7.57;;
9294;SDS011;4686;44.496;11.324;2022-11-06T07:19:05;8.93;;;8.03;;
9294;SDS011;4686;44.496;11.324;2022-11-06T07:21:32;8.63;;;7.80;;
9294;SDS011;4686;44.496;11.324;2022-11-06T07:24:01;8.20;;;7.43;;
9294;SDS011;4686;44.496;11.324;2022-11-06T07:26:28;8.20;;;7.37;;
9294;SDS011;4686;44.496;11.324;2022-11-06T07:28:55;8.30;;;7.10;;
9294;SDS011;4686;44.496;11.324;2022-11-06T07:31:23;7.93;;;7.13;;
9294;SDS011;4686;44.496;11.324;2022-11-06T07:33:50;7.50;;;6.80;;
9294;SDS011;4686;44.496;11.324;2022-11-06T07:36:18;8.20;;;7.50;;
9294;SDS011;4686;44.496;11.324;2022-11-06T07:38:45;8.37;;;7.47;;
9294;SDS011;4686;44.496;11.324;2022-11-06T07:41:15;8.10;;;7.30;;
9294;SDS011;4686;44.496;11.324;2022-11-06T07:43:43;7.13;;;6.53;;
9294;SDS011;4686;44.496;11.324;2022-11-06T07:46:11;9.10;;;7.73;;
9294;SDS011;4686;44.496;11.324;2022-11-06T07:48:40;9.00;;;7.07;;
9294;SDS011;4686;44.496;11.324;2022-11-06T07:51:14;8.67;;;7.57;;
9294;SDS011;4686;44.496;11.324;2022-11-06T07:53:41;7.83;;;7.10;;
9294;SDS011;4686;44.496;11.324;2022-11-06T07:56:08;7.80;;;6.73;;
9294;SDS011;4686;44.496;11.324;2022-11-06T07:58:37;8.23;;;7.43;;
9294;SDS011;4686;44.496;11.324;2022-11-06T08:01:04;8.70;;;7.30;;
9294;SDS011;4686;44.496;11.324;2022-11-06T08:03:32;7.87;;;6.87;;
9294;SDS011;4686;44.496;11.324;2022-11-06T08:06:01;7.83;;;7.17;;
9294;SDS011;4686;44.496;11.324;2022-11-06T08:08:29;9.07;;;7.87;;
9294;SDS011;4686;44.496;11.324;2022-11-06T08:11:00;7.20;;;6.50;;
9294;SDS011;4686;44.496;11.324;2022-11-06T08:13:27;7.80;;;7.10;;
9294;SDS011;4686;44.496;11.324;2022-11-06T08:15:57;8.07;;;7.30;;
9294;SDS011;4686;44.496;11.324;2022-11-06T08:18:25;7.50;;;6.80;;
9294;SDS011;4686;44.496;11.324;2022-11-06T08:20:53;7.37;;;6.50;;
9294;SDS011;4686;44.496;11.324;2022-11-06T08:23:20;7.00;;;6.40;;
9294;SDS011;4686;44.496;11.324;2022-11-06T08:25:48;6.97;;;6.27;;
9294;SDS011;4686;44.496;11.324;2022-11-06T08:28:15;6.97;;;6.37;;
9294;SDS011;4686;44.496;11.324;2022-11-06T08:30:43;7.70;;;7.00;;
9294;SDS011;4686;44.496;11.324;2022-11-06T08:33:11;7.07;;;6.40;;
9294;SDS011;4686;44.496;11.324;2022-11-06T08:35:39;6.30;;;5.80;;
9294;SDS011;4686;44.496;11.324;2022-11-06T08:38:06;6.67;;;5.93;;
9294;SDS011;4686;44.496;11.324;2022-11-06T08:40:35;9.97;;;5.70;;
9294;SDS011;4686;44.496;11.324;2022-11-06T08:43:04;8.90;;;6.50;;
9294;SDS011;4686;44.496;11.324;2022-11-06T08:45:34;5.60;;;5.10;;
9294;SDS011;4686;44.496;11.324;2022-11-06T08:48:02;5.73;;;5.23;;
9294;SDS011;4686;44.496;11.324;2022-11-06T08:50:31;6.87;;;6.17;;
9294;SDS011;4686;44.496;11.324;2022-11-06T08:52:59;6.50;;;5.83;;
9294;SDS011;4686;44.496;11.324;2022-11-06T08:55:28;6.73;;;5.70;;
9294;SDS011;4686;44.496;11.324;2022-11-06T08:57:55;6.77;;;6.17;;
9294;SDS011;4686;44.496;11.324;2022-11-06T09:00:22;8.50;;;7.77;;
9294;SDS011;4686;44.496;11.324;2022-11-06T09:02:50;5.93;;;5.40;;
9294;SDS011;4686;44.496;11.324;2022-11-06T09:05:17;8.23;;;6.70;;
9294;SDS011;4686;44.496;11.324;2022-11-06T09:07:47;7.23;;;6.53;;
9294;SDS011;4686;44.496;11.324;2022-11-06T09:10:14;15.30;;;11.63;;
9294;SDS011;4686;44.496;11.324;2022-11-06T09:12:42;7.40;;;6.50;;
9294;SDS011;4686;44.496;11.324;2022-11-06T09:15:09;16.27;;;6.80;;
9294;SDS011;4686;44.496;11.324;2022-11-06T09:17:40;7.87;;;7.07;;
9294;SDS011;4686;44.496;11.324;2022-11-06T09:20:08;9.93;;;7.53;;
9294;SDS011;4686;44.496;11.324;2022-11-06T09:22:35;6.90;;;6.30;;
9294;SDS011;4686;44.496;11.324;2022-11-06T09:25:08;9.40;;;6.73;;
9294;SDS011;4686;44.496;11.324;2022-11-06T09:27:42;12.53;;;7.80;;
9294;SDS011;4686;44.496;11.324;2022-11-06T09:30:12;7.23;;;6.53;;
9294;SDS011;4686;44.496;11.324;2022-11-06T09:32:43;7.23;;;6.50;;
9294;SDS011;4686;44.496;11.324;2022-11-06T09:35:11;9.57;;;7.20;;
9294;SDS011;4686;44.496;11.324;2022-11-06T09:37:39;10.07;;;8.70;;
9294;SDS011;4686;44.496;11.324;2022-11-06T09:40:08;8.50;;;7.70;;
9294;SDS011;4686;44.496;11.324;2022-11-06T09:42:46;8.80;;;7.13;;
9294;SDS011;4686;44.496;11.324;2022-11-06T09:45:17;8.20;;;7.20;;
9294;SDS011;4686;44.496;11.324;2022-11-06T09:47:49;8.43;;;7.63;;
9294;SDS011;4686;44.496;11.324;2022-11-06T09:50:19;12.13;;;8.60;;
9294;SDS011;4686;44.496;11.324;2022-11-06T09:52:48;9.87;;;8.60;;
9294;SDS011;4686;44.496;11.324;2022-11-06T09:55:19;18.27;;;9.80;;
9294;SDS011;4686;44.496;11.324;2022-11-06T09:57:48;8.97;;;7.57;;
9294;SDS011;4686;44.496;11.324;2022-11-06T10:00:17;16.20;;;9.13;;
9294;SDS011;4686;44.496;11.324;2022-11-06T10:02:46;7.93;;;7.13;;
9294;SDS011;4686;44.496;11.324;2022-11-06T10:05:17;8.90;;;7.80;;
9294;SDS011;4686;44.496;11.324;2022-11-06T10:07:48;9.90;;;7.50;;
9294;SDS011;4686;44.496;11.324;2022-11-06T10:10:19;12.27;;;8.80;;
9294;SDS011;4686;44.496;11.324;2022-11-06T10:12:57;11.50;;;8.90;;
9294;SDS011;4686;44.496;11.324;2022-11-06T10:15:27;13.03;;;10.10;;
9294;SDS011;4686;44.496;11.324;2022-11-06T10:17:57;18.53;;;8.77;;
9294;SDS011;4686;44.496;11.324;2022-11-06T10:20:28;13.10;;;9.37;;
9294;SDS011;4686;44.496;11.324;2022-11-06T10:23:01;16.73;;;12.27;;
9294;SDS011;4686;44.496;11.324;2022-11-06T10:25:42;10.17;;;8.80;;
9294;SDS011;4686;44.496;11.324;2022-11-06T10:28:12;12.37;;;8.63;;
9294;SDS011;4686;44.496;11.324;2022-11-06T10:30:45;7.40;;;6.70;;
9294;SDS011;4686;44.496;11.324;2022-11-06T10:33:21;9.93;;;8.90;;
9294;SDS011;4686;44.496;11.324;2022-11-06T10:35:50;8.53;;;7.63;;
9294;SDS011;4686;44.496;11.324;2022-11-06T10:38:21;9.23;;;8.27;;
9294;SDS011;4686;44.496;11.324;2022-11-06T10:40:51;9.73;;;8.57;;
9294;SDS011;4686;44.496;11.324;2022-11-06T10:43:23;15.00;;;11.80;;
9294;SDS011;4686;44.496;11.324;2022-11-06T10:45:55;7.90;;;7.10;;
9294;SDS011;4686;44.496;11.324;2022-11-06T10:48:25;7.90;;;7.17;;
9294;SDS011;4686;44.496;11.324;2022-11-06T10:50:57;7.30;;;6.70;;
9294;SDS011;4686;44.496;11.324;2022-11-06T10:53:29;8.10;;;7.40;;
9294;SDS011;4686;44.496;11.324;2022-11-06T10:56:05;8.77;;;7.40;;
9294;SDS011;4686;44.496;11.324;2022-11-06T10:58:36;10.17;;;8.90;;
9294;SDS011;4686;44.496;11.324;2022-11-06T11:01:04;7.37;;;6.63;;
9294;SDS011;4686;44.496;11.324;2022-11-06T11:03:33;7.50;;;6.73;;
9294;SDS011;4686;44.496;11.324;2022-11-06T11:06:01;9.00;;;7.07;;
9294;SDS011;4686;44.496;11.324;2022-11-06T11:08:32;9.80;;;8.80;;
9294;SDS011;4686;44.496;11.324;2022-11-06T11:11:01;7.83;;;6.77;;
9294;SDS011;4686;44.496;11.324;2022-11-06T11:13:37;13.00;;;9.10;;
9294;SDS011;4686;44.496;11.324;2022-11-06T11:16:05;7.30;;;6.70;;
9294;SDS011;4686;44.496;11.324;2022-11-06T11:18:38;10.73;;;8.90;;
9294;SDS011;4686;44.496;11.324;2022-11-06T11:21:06;9.10;;;8.20;;
9294;SDS011;4686;44.496;11.324;2022-11-06T11:23:34;7.70;;;6.93;;
9294;SDS011;4686;44.496;11.324;2022-11-06T11:26:13;7.87;;;7.10;;
9294;SDS011;4686;44.496;11.324;2022-11-06T11:28:45;12.00;;;9.57;;
9294;SDS011;4686;44.496;11.324;2022-11-06T11:31:15;8.50;;;7.33;;
9294;SDS011;4686;44.496;11.324;2022-11-06T11:33:47;7.93;;;7.10;;
9294;SDS011;4686;44.496;11.324;2022-11-06T11:36:15;8.63;;;7.73;;
9294;SDS011;4686;44.496;11.324;2022-11-06T11:38:43;10.03;;;8.10;;
9294;SDS011;4686;44.496;11.324;2022-11-06T11:41:12;10.77;;;7.87;;
9294;SDS011;4686;44.496;11.324;2022-11-06T11:43:40;16.53;;;8.77;;
9294;SDS011;4686;44.496;11.324;2022-11-06T11:46:17;8.47;;;7.57;;
9294;SDS011;4686;44.496;11.324;2022-11-06T11:48:46;10.27;;;8.00;;
9294;SDS011;4686;44.496;11.324;2022-11-06T11:51:17;8.37;;;6.30;;
9294;SDS011;4686;44.496;11.324;2022-11-06T11:53:46;7.33;;;6.63;;
9294;SDS011;4686;44.496;11.324;2022-11-06T11:56:13;9.93;;;6.60;;
9294;SDS011;4686;44.496;11.324;2022-11-06T11:58:46;11.67;;;9.70;;
9294;SDS011;4686;44.496;11.324;2022-11-06T12:01:14;8.20;;;7.40;;
9294;SDS011;4686;44.496;11.324;2022-11-06T12:03:45;12.50;;;9.90;;
9294;SDS011;4686;44.496;11.324;2022-11-06T12:06:17;7.10;;;6.30;;
9294;SDS011;4686;44.496;11.324;2022-11-06T12:08:46;12.37;;;7.13;;
9294;SDS011;4686;44.496;11.324;2022-11-06T12:11:24;7.47;;;6.53;;
9294;SDS011;4686;44.496;11.324;2022-11-06T12:16:47;17.30;;;7.37;;
9294;SDS011;4686;44.496;11.324;2022-11-06T12:19:16;7.30;;;6.60;;
9294;SDS011;4686;44.496;11.324;2022-11-06T12:21:45;7.00;;;6.30;;
9294;SDS011;4686;44.496;11.324;2022-11-06T12:24:15;6.30;;;5.70;;
9294;SDS011;4686;44.496;11.324;2022-11-06T12:26:45;9.90;;;6.30;;
9294;SDS011;4686;44.496;11.324;2022-11-06T12:29:15;7.80;;;5.37;;
9294;SDS011;4686;44.496;11.324;2022-11-06T12:31:44;4.80;;;4.20;;
9294;SDS011;4686;44.496;11.324;2022-11-06T12:34:18;5.50;;;5.10;;
9294;SDS011;4686;44.496;11.324;2022-11-06T12:36:51;5.63;;;5.07;;
9294;SDS011;4686;44.496;11.324;2022-11-06T12:39:21;5.97;;;4.97;;
9294;SDS011;4686;44.496;11.324;2022-11-06T12:41:50;7.83;;;6.50;;
9294;SDS011;4686;44.496;11.324;2022-11-06T12:44:18;5.40;;;4.97;;
9294;SDS011;4686;44.496;11.324;2022-11-06T12:46:47;14.53;;;4.57;;
9294;SDS011;4686;44.496;11.324;2022-11-06T12:49:31;6.57;;;5.40;;
9294;SDS011;4686;44.496;11.324;2022-11-06T12:52:07;8.60;;;6.30;;
9294;SDS011;4686;44.496;11.324;2022-11-06T12:54:42;5.20;;;4.67;;
9294;SDS011;4686;44.496;11.324;2022-11-06T12:57:15;4.90;;;4.40;;
9294;SDS011;4686;44.496;11.324;2022-11-06T12:59:49;4.57;;;4.17;;
9294;SDS011;4686;44.496;11.324;2022-11-06T13:02:23;6.80;;;4.50;;
9294;SDS011;4686;44.496;11.324;2022-11-06T13:04:59;7.30;;;3.77;;
9294;SDS011;4686;44.496;11.324;2022-11-06T13:07:39;3.83;;;3.53;;
9294;SDS011;4686;44.496;11.324;2022-11-06T13:10:13;3.80;;;3.40;;
9294;SDS011;4686;44.496;11.324;2022-11-06T13:12:46;3.67;;;3.37;;
9294;SDS011;4686;44.496;11.324;2022-11-06T13:15:19;3.97;;;3.73;;
9294;SDS011;4686;44.496;11.324;2022-11-06T13:17:50;4.40;;;4.00;;
9294;SDS011;4686;44.496;11.324;2022-11-06T13:20:23;5.30;;;4.57;;
9294;SDS011;4686;44.496;11.324;2022-11-06T13:22:54;3.83;;;3.63;;
9294;SDS011;4686;44.496;11.324;2022-11-06T13:25:25;8.87;;;6.43;;
9294;SDS011;4686;44.496;11.324;2022-11-06T13:27:55;5.03;;;4.57;;
9294;SDS011;4686;44.496;11.324;2022-11-06T13:30:24;4.20;;;3.83;;
9294;SDS011;4686;44.496;11.324;2022-11-06T13:32:58;4.67;;;4.27;;
9294;SDS011;4686;44.496;11.324;2022-11-06T13:35:27;5.23;;;4.50;;
9294;SDS011;4686;44.496;11.324;2022-11-06T13:37:55;3.80;;;3.50;;
9294;SDS011;4686;44.496;11.324;2022-11-06T13:40:25;4.13;;;3.90;;
9294;SDS011;4686;44.496;11.324;2022-11-06T13:42:55;3.77;;;3.53;;
9294;SDS011;4686;44.496;11.324;2022-11-06T13:45:23;4.60;;;4.30;;
9294;SDS011;4686;44.496;11.324;2022-11-06T13:47:55;4.43;;;4.03;;
9294;SDS011;4686;44.496;11.324;2022-11-06T13:50:25;4.90;;;4.50;;
9294;SDS011;4686;44.496;11.324;2022-11-06T13:52:56;4.57;;;4.17;;
9294;SDS011;4686;44.496;11.324;2022-11-06T13:55:28;4.07;;;3.73;;
9294;SDS011;4686;44.496;11.324;2022-11-06T13:58:05;15.53;;;5.13;;
9294;SDS011;4686;44.496;11.324;2022-11-06T14:00:39;4.10;;;3.73;;
9294;SDS011;4686;44.496;11.324;2022-11-06T14:05:54;4.33;;;3.93;;
9294;SDS011;4686;44.496;11.324;2022-11-06T14:08:26;3.73;;;3.40;;
9294;SDS011;4686;44.496;11.324;2022-11-06T14:10:57;4.40;;;4.00;;
9294;SDS011;4686;44.496;11.324;2022-11-06T14:13:26;6.90;;;5.90;;
9294;SDS011;4686;44.496;11.324;2022-11-06T14:16:00;5.77;;;5.27;;
9294;SDS011;4686;44.496;11.324;2022-11-06T14:18:28;12.37;;;4.33;;
9294;SDS011;4686;44.496;11.324;2022-11-06T14:23:50;4.33;;;3.93;;
9294;SDS011;4686;44.496;11.324;2022-11-06T14:34:26;7.57;;;4.87;;
9294;SDS011;4686;44.496;11.324;2022-11-06T14:36:53;5.80;;;4.40;;
9294;SDS011;4686;44.496;11.324;2022-11-06T14:42:04;3.97;;;3.70;;
9294;SDS011;4686;44.496;11.324;2022-11-06T14:44:42;5.93;;;4.30;;
9294;SDS011;4686;44.496;11.324;2022-11-06T14:50:06;16.30;;;4.87;;
9294;SDS011;4686;44.496;11.324;2022-11-06T14:52:39;20.80;;;4.47;;
9294;SDS011;4686;44.496;11.324;2022-11-06T14:55:13;6.23;;;3.73;;
9294;SDS011;4686;44.496;11.324;2022-11-06T14:57:49;5.20;;;4.03;;
9294;SDS011;4686;44.496;11.324;2022-11-06T15:00:34;3.80;;;3.50;;
9294;SDS011;4686;44.496;11.324;2022-11-06T15:03:03;9.07;;;3.87;;
9294;SDS011;4686;44.496;11.324;2022-11-06T15:05:32;8.87;;;4.80;;
9294;SDS011;4686;44.496;11.324;2022-11-06T15:08:01;5.50;;;5.00;;
9294;SDS011;4686;44.496;11.324;2022-11-06T15:10:51;5.53;;;4.90;;
9294;SDS011;4686;44.496;11.324;2022-11-06T15:13:24;9.63;;;5.13;;
9294;SDS011;4686;44.496;11.324;2022-11-06T15:15:54;4.27;;;3.87;;
9294;SDS011;4686;44.496;11.324;2022-11-06T15:18:24;4.30;;;3.70;;
9294;SDS011;4686;44.496;11.324;2022-11-06T15:20:52;4.27;;;3.80;;
9294;SDS011;4686;44.496;11.324;2022-11-06T15:23:21;4.40;;;4.00;;
9294;SDS011;4686;44.496;11.324;2022-11-06T15:25:51;4.53;;;4.23;;
9294;SDS011;4686;44.496;11.324;2022-11-06T15:28:21;4.93;;;3.73;;
9294;SDS011;4686;44.496;11.324;2022-11-06T15:30:51;5.20;;;4.23;;
9294;SDS011;4686;44.496;11.324;2022-11-06T15:33:23;4.40;;;3.80;;
9294;SDS011;4686;44.496;11.324;2022-11-06T15:35:51;4.27;;;3.87;;
9294;SDS011;4686;44.496;11.324;2022-11-06T15:38:19;6.00;;;3.83;;